createdAt,value
2023-08-03T00:00:15.753Z,3.10
2023-08-03T00:02:43.041Z,2.75
2023-08-03T00:05:10.207Z,3.08
2023-08-03T00:07:37.387Z,2.60
2023-08-03T00:10:05.388Z,1.95
2023-08-03T00:12:32.546Z,2.83
2023-08-03T00:15:01.059Z,3.40
2023-08-03T00:17:28.283Z,3.28
2023-08-03T00:19:55.499Z,3.08
2023-08-03T00:22:22.650Z,3.05
2023-08-03T00:24:50.515Z,2.38
2023-08-03T00:27:17.669Z,2.70
2023-08-03T00:29:44.855Z,2.83
2023-08-03T00:32:13.432Z,2.53
2023-08-03T00:34:40.587Z,3.20
2023-08-03T00:37:07.788Z,1.63
2023-08-03T00:39:34.941Z,2.75
2023-08-03T00:42:02.179Z,2.15
2023-08-03T00:44:29.490Z,3.08
2023-08-03T00:46:56.806Z,1.75
2023-08-03T00:49:25.495Z,2.15
2023-08-03T00:51:52.629Z,3.58
2023-08-03T00:54:19.837Z,2.22
2023-08-03T00:56:46.961Z,2.42
2023-08-03T00:59:14.454Z,1.85
2023-08-03T01:01:43.183Z,1.85
2023-08-03T01:04:11.463Z,2.50
2023-08-03T01:06:40.007Z,1.73
2023-08-03T01:09:07.359Z,1.75
2023-08-03T01:11:35.282Z,2.25
2023-08-03T01:14:02.739Z,2.50
2023-08-03T01:16:30.339Z,2.55
2023-08-03T01:18:57.545Z,1.63
2023-08-03T01:21:25.956Z,2.15
2023-08-03T01:23:54.505Z,2.17
2023-08-03T01:26:21.693Z,1.58
2023-08-03T01:28:48.834Z,2.28
2023-08-03T01:31:16.625Z,3.45
2023-08-03T01:33:43.801Z,2.53
2023-08-03T01:36:11.059Z,2.20
2023-08-03T01:38:38.235Z,1.90
2023-08-03T01:41:06.743Z,2.20
2023-08-03T01:43:34.265Z,2.40
2023-08-03T01:46:01.491Z,2.03
2023-08-03T01:48:28.921Z,2.28
2023-08-03T01:50:56.118Z,2.85
2023-08-03T01:53:23.269Z,1.83
2023-08-03T01:55:50.453Z,3.38
2023-08-03T01:58:19.257Z,1.73
2023-08-03T02:00:48.868Z,3.42
2023-08-03T02:03:17.205Z,2.05
2023-08-03T02:05:44.386Z,2.20
2023-08-03T02:08:11.889Z,1.92
2023-08-03T02:10:39.081Z,1.95
2023-08-03T02:13:06.231Z,2.53
2023-08-03T02:15:34.745Z,2.17
2023-08-03T02:18:01.963Z,2.97
2023-08-03T02:20:29.271Z,1.77
2023-08-03T02:22:56.442Z,2.28
2023-08-03T02:25:23.656Z,2.28
2023-08-03T02:27:50.839Z,1.75
2023-08-03T02:30:18.140Z,2.17
2023-08-03T02:32:46.722Z,4.43
2023-08-03T02:35:13.989Z,1.65
2023-08-03T02:37:41.185Z,1.85
2023-08-03T02:40:08.947Z,2.47
2023-08-03T02:42:36.556Z,1.42
2023-08-03T02:45:04.469Z,2.10
2023-08-03T02:47:32.230Z,1.92
2023-08-03T02:50:00.796Z,1.95
2023-08-03T02:52:27.971Z,2.13
2023-08-03T02:54:55.106Z,1.98
2023-08-03T02:57:22.246Z,1.40
2023-08-03T02:59:49.399Z,2.83
2023-08-03T03:02:16.607Z,2.22
2023-08-03T03:04:43.829Z,2.60
2023-08-03T03:07:12.404Z,3.20
2023-08-03T03:09:39.557Z,2.60
2023-08-03T03:12:07.608Z,2.15
2023-08-03T03:14:35.050Z,1.40
2023-08-03T03:17:02.256Z,2.35
2023-08-03T03:19:29.445Z,1.65
2023-08-03T03:21:56.943Z,2.50
2023-08-03T03:24:25.445Z,3.17
2023-08-03T03:26:52.579Z,2.17
2023-08-03T03:29:20.106Z,2.40
2023-08-03T03:31:47.473Z,1.50
2023-08-03T03:34:14.809Z,2.88
2023-08-03T03:36:41.984Z,3.15
2023-08-03T03:39:09.118Z,20.80
2023-08-03T03:41:37.599Z,16.65
2023-08-03T03:44:04.831Z,6.53
2023-08-03T03:46:31.970Z,3.95
2023-08-03T03:48:59.162Z,4.60
2023-08-03T03:51:26.382Z,6.00
2023-08-03T03:53:53.936Z,4.28
2023-08-03T03:56:21.085Z,5.15
2023-08-03T03:58:49.635Z,5.07
2023-08-03T04:01:16.814Z,5.55
2023-08-03T04:03:44.042Z,6.82
2023-08-03T04:06:11.316Z,5.63
2023-08-03T04:08:38.530Z,3.17
2023-08-03T04:11:05.686Z,4.65
2023-08-03T04:13:32.918Z,5.38
2023-08-03T04:16:01.456Z,6.32
2023-08-03T04:18:29.865Z,3.88
2023-08-03T04:20:58.277Z,5.07
2023-08-03T04:23:25.429Z,5.07
2023-08-03T04:25:52.567Z,3.38
2023-08-03T04:28:19.765Z,4.13
2023-08-03T04:30:46.977Z,3.08
2023-08-03T04:33:15.634Z,2.95
2023-08-03T04:35:42.806Z,3.40
2023-08-03T04:38:09.961Z,3.03
2023-08-03T04:40:37.264Z,4.30
2023-08-03T04:43:04.608Z,5.25
2023-08-03T04:45:31.766Z,4.63
2023-08-03T04:47:59.057Z,3.40
2023-08-03T04:50:27.668Z,4.10
2023-08-03T04:52:54.807Z,3.00
2023-08-03T04:55:22.061Z,3.55
2023-08-03T04:57:49.259Z,4.55
2023-08-03T05:00:16.860Z,3.90
2023-08-03T05:02:44.042Z,4.63
2023-08-03T05:05:11.247Z,2.03
2023-08-03T05:07:39.826Z,2.95
2023-08-03T05:10:07.339Z,7.90
2023-08-03T05:12:34.572Z,2.58
2023-08-03T05:15:01.729Z,3.17
2023-08-03T05:17:28.951Z,2.05
2023-08-03T05:19:56.183Z,3.65
2023-08-03T05:22:23.359Z,3.13
2023-08-03T05:24:51.886Z,3.55
2023-08-03T05:27:19.316Z,2.80
2023-08-03T05:29:46.488Z,2.33
2023-08-03T05:32:13.669Z,3.47
2023-08-03T05:34:40.932Z,2.78
2023-08-03T05:37:08.066Z,2.42
2023-08-03T05:39:35.340Z,2.80
2023-08-03T05:42:05.210Z,3.53
2023-08-03T05:44:32.383Z,3.25
2023-08-03T05:47:00.029Z,3.60
2023-08-03T05:49:27.276Z,2.95
2023-08-03T05:51:54.517Z,3.15
2023-08-03T05:54:21.683Z,3.00
2023-08-03T05:56:49.523Z,2.97
2023-08-03T05:59:21.066Z,3.10
2023-08-03T06:01:49.652Z,5.07
2023-08-03T06:04:17.416Z,1.90
2023-08-03T06:06:45.240Z,4.00
2023-08-03T06:09:13.897Z,2.55
2023-08-03T06:11:41.818Z,3.47
2023-08-03T06:14:12.270Z,2.67
2023-08-03T06:16:43.081Z,2.50
2023-08-03T06:19:10.521Z,4.80
2023-08-03T06:21:38.164Z,2.75
2023-08-03T06:24:05.442Z,3.03
2023-08-03T06:26:34.459Z,2.35
2023-08-03T06:29:01.966Z,3.38
2023-08-03T06:31:32.209Z,4.55
2023-08-03T06:34:00.978Z,2.95
2023-08-03T06:36:28.584Z,2.65
2023-08-03T06:38:56.543Z,2.95
2023-08-03T06:41:25.307Z,2.83
2023-08-03T06:43:53.108Z,2.72
2023-08-03T06:46:20.592Z,3.03
2023-08-03T06:48:48.302Z,2.65
2023-08-03T06:51:17.024Z,2.25
2023-08-03T06:53:44.754Z,2.97
2023-08-03T06:56:13.001Z,2.00
2023-08-03T06:58:40.186Z,1.70
2023-08-03T07:01:07.431Z,2.03
2023-08-03T07:03:34.831Z,2.65
2023-08-03T07:06:02.251Z,3.28
2023-08-03T07:08:30.985Z,3.80
2023-08-03T07:10:58.225Z,2.25
2023-08-03T07:13:25.420Z,2.45
2023-08-03T07:15:52.625Z,3.20
2023-08-03T07:18:19.965Z,1.88
2023-08-03T07:20:47.259Z,3.55
2023-08-03T07:23:14.470Z,3.13
2023-08-03T07:25:43.015Z,1.90
2023-08-03T07:28:10.195Z,1.85
2023-08-03T07:30:37.917Z,2.25
2023-08-03T07:33:05.334Z,2.97
2023-08-03T07:35:32.571Z,1.52
2023-08-03T07:38:00.031Z,2.35
2023-08-03T07:40:27.230Z,2.78
2023-08-03T07:42:55.792Z,1.83
2023-08-03T07:47:53.117Z,4.15
2023-08-03T07:50:20.305Z,2.92
2023-08-03T07:52:47.480Z,2.75
2023-08-03T07:55:14.699Z,2.92
2023-08-03T07:57:41.848Z,3.20
2023-08-03T08:00:11.973Z,3.22
2023-08-03T08:02:39.251Z,3.28
2023-08-03T08:05:07.258Z,2.05
2023-08-03T08:07:35.827Z,1.92
2023-08-03T08:10:04.518Z,2.35
2023-08-03T08:12:32.020Z,2.95
2023-08-03T08:14:59.260Z,3.60
2023-08-03T08:17:27.784Z,2.15
2023-08-03T08:19:56.893Z,2.55
2023-08-03T08:22:24.216Z,2.00
2023-08-03T08:24:51.460Z,2.20
2023-08-03T08:27:19.008Z,2.42
2023-08-03T08:29:46.950Z,2.55
2023-08-03T08:32:14.363Z,1.90
2023-08-03T08:34:43.043Z,2.20
2023-08-03T08:37:10.715Z,2.08
2023-08-03T08:39:38.115Z,1.60
2023-08-03T08:42:12.409Z,2.55
2023-08-03T08:44:39.732Z,4.57
2023-08-03T08:47:07.202Z,1.77
2023-08-03T08:52:08.126Z,2.08
2023-08-03T08:57:10.959Z,1.83
2023-08-03T08:59:59.380Z,2.17
2023-08-03T09:02:27.274Z,3.20
2023-08-03T09:04:54.742Z,1.90
2023-08-03T09:07:23.572Z,1.52
2023-08-03T09:10:00.316Z,2.08
2023-08-03T09:12:27.742Z,1.30
2023-08-03T09:14:54.982Z,2.15
2023-08-03T09:17:23.005Z,1.60
2023-08-03T09:25:01.471Z,2.03
2023-08-03T09:30:00.146Z,1.33
2023-08-03T09:32:31.931Z,1.80
2023-08-03T09:34:59.178Z,1.70
2023-08-03T09:40:06.802Z,2.75
2023-08-03T09:42:36.233Z,1.10
2023-08-03T09:45:06.080Z,1.40
2023-08-03T09:47:33.859Z,1.45
2023-08-03T09:50:01.623Z,1.42
2023-08-03T09:55:07.922Z,2.13
2023-08-03T09:57:40.131Z,1.73
2023-08-03T10:00:08.488Z,1.90
2023-08-03T10:02:52.361Z,2.78
2023-08-03T10:05:22.261Z,1.15
2023-08-03T10:07:57.488Z,1.33
2023-08-03T10:10:28.066Z,1.30
2023-08-03T10:13:01.070Z,1.25
2023-08-03T10:15:29.033Z,0.93
2023-08-03T10:17:56.665Z,1.35
2023-08-03T10:20:24.205Z,3.05
2023-08-03T10:23:21.561Z,4.20
2023-08-03T10:25:54.549Z,1.60
2023-08-03T10:28:22.651Z,2.57
2023-08-03T10:31:11.445Z,3.40
2023-08-03T10:34:15.080Z,2.28
2023-08-03T10:36:46.680Z,1.55
2023-08-03T10:39:15.183Z,3.45
2023-08-03T10:41:45.929Z,2.40
2023-08-03T10:44:26.856Z,1.67
2023-08-03T10:46:55.937Z,1.70
2023-08-03T10:49:48.022Z,3.05
2023-08-03T10:52:17.888Z,1.10
2023-08-03T10:54:45.803Z,2.25
2023-08-03T10:57:15.722Z,2.17
2023-08-03T10:59:47.011Z,1.48
2023-08-03T11:02:16.054Z,1.42
2023-08-03T11:04:44.073Z,1.40
2023-08-03T11:07:12.778Z,1.20
2023-08-03T11:09:40.123Z,1.95
2023-08-03T11:12:09.256Z,2.03
2023-08-03T11:14:37.932Z,2.65
2023-08-03T11:17:05.642Z,2.08
2023-08-03T11:19:38.309Z,1.15
2023-08-03T11:22:06.149Z,1.77
2023-08-03T11:24:33.440Z,0.60
2023-08-03T11:27:02.283Z,1.20
2023-08-03T11:29:29.595Z,2.45
2023-08-03T11:31:58.141Z,0.93
2023-08-03T11:34:25.482Z,1.13
2023-08-03T11:36:53.439Z,1.35
2023-08-03T11:39:21.087Z,1.00
2023-08-03T11:41:49.864Z,1.25
2023-08-03T11:44:20.729Z,1.20
2023-08-03T11:46:48.059Z,1.50
2023-08-03T11:49:17.294Z,1.83
2023-08-03T11:51:44.457Z,1.23
2023-08-03T11:54:22.602Z,0.95
2023-08-03T11:56:50.095Z,1.20
2023-08-03T11:59:17.451Z,1.30
2023-08-03T12:01:46.210Z,2.13
2023-08-03T12:04:15.123Z,1.50
2023-08-03T12:06:50.931Z,0.73
2023-08-03T12:09:23.515Z,0.98
2023-08-03T12:11:50.951Z,1.02
2023-08-03T12:14:18.787Z,1.08
2023-08-03T12:16:47.290Z,1.30
2023-08-03T12:19:14.719Z,1.63
2023-08-03T12:21:41.928Z,0.98
2023-08-03T12:24:11.048Z,0.88
2023-08-03T12:26:38.645Z,0.70
2023-08-03T12:29:08.626Z,0.88
2023-08-03T12:31:36.068Z,1.10
2023-08-03T12:34:03.510Z,0.50
2023-08-03T12:36:31.293Z,1.02
2023-08-03T12:38:58.475Z,1.25
2023-08-03T12:41:27.085Z,0.73
2023-08-03T12:43:54.275Z,1.08
2023-08-03T12:46:21.524Z,0.70
2023-08-03T12:48:48.780Z,0.82
2023-08-03T12:51:16.106Z,1.23
2023-08-03T12:53:43.489Z,1.08
2023-08-03T12:56:10.881Z,0.95
2023-08-03T12:58:39.486Z,0.98
2023-08-03T13:01:06.829Z,0.80
2023-08-03T13:03:34.086Z,1.08
2023-08-03T13:06:01.296Z,0.90
2023-08-03T13:08:28.612Z,1.48
2023-08-03T13:10:56.008Z,1.80
2023-08-03T13:13:23.190Z,0.75
2023-08-03T13:15:54.691Z,0.95
2023-08-03T13:18:22.214Z,0.60
2023-08-03T13:20:50.017Z,0.45
2023-08-03T13:23:17.472Z,0.93
2023-08-03T13:25:44.789Z,1.38
2023-08-03T13:28:11.993Z,1.30
2023-08-03T13:30:39.127Z,1.23
2023-08-03T13:33:07.687Z,0.88
2023-08-03T13:35:35.077Z,0.93
2023-08-03T13:38:02.379Z,1.02
2023-08-03T13:40:29.665Z,0.88
2023-08-03T13:42:56.813Z,0.50
2023-08-03T13:45:23.976Z,0.40
2023-08-03T13:47:51.522Z,1.25
2023-08-03T13:50:20.149Z,1.77
2023-08-03T13:52:47.351Z,0.63
2023-08-03T13:55:14.570Z,0.85
2023-08-03T13:57:42.301Z,0.60
2023-08-03T14:00:10.378Z,0.60
2023-08-03T14:05:08.666Z,0.57
2023-08-03T14:22:42.186Z,1.08
2023-08-03T14:27:51.520Z,0.50
2023-08-03T14:30:20.834Z,1.35
2023-08-03T14:32:48.859Z,0.45
2023-08-03T14:37:47.948Z,0.88
2023-08-03T14:40:15.274Z,0.80
2023-08-03T14:42:42.466Z,0.88
2023-08-03T14:45:10.484Z,0.90
2023-08-03T14:47:37.754Z,0.57
2023-08-03T14:52:36.087Z,1.30
2023-08-03T14:55:05.456Z,0.68
2023-08-03T14:57:32.714Z,1.33
2023-08-03T15:00:00.014Z,1.85
2023-08-03T15:02:27.401Z,1.08
2023-08-03T15:04:55.495Z,0.90
2023-08-03T15:07:24.653Z,0.50
2023-08-03T15:09:53.349Z,0.52
2023-08-03T15:12:25.128Z,0.93
2023-08-03T15:14:52.734Z,1.33
2023-08-03T15:19:50.361Z,0.45
2023-08-03T15:22:18.458Z,0.40
2023-08-03T15:24:48.516Z,1.08
2023-08-03T15:34:52.134Z,1.00
2023-08-03T15:37:21.083Z,1.23
2023-08-03T15:39:50.259Z,1.38
2023-08-03T15:42:22.034Z,0.47
2023-08-03T15:44:57.045Z,0.80
2023-08-03T15:53:03.964Z,0.82
2023-08-03T15:58:01.098Z,0.80
2023-08-03T16:00:29.756Z,1.25
2023-08-03T16:02:57.077Z,2.58
2023-08-03T16:05:26.502Z,0.95
2023-08-03T16:07:53.962Z,0.65
2023-08-03T16:10:21.264Z,0.50
2023-08-03T16:12:48.460Z,0.77
2023-08-03T16:15:15.595Z,0.80
2023-08-03T16:17:44.155Z,0.50
2023-08-03T16:20:11.974Z,2.55
2023-08-03T16:22:39.136Z,1.08
2023-08-03T16:25:07.190Z,1.08
2023-08-03T16:27:35.026Z,0.73
2023-08-03T16:30:03.814Z,0.95
2023-08-03T16:32:31.364Z,0.30
2023-08-03T16:35:04.041Z,1.08
2023-08-03T16:37:32.895Z,1.10
2023-08-03T16:40:00.250Z,0.68
2023-08-03T16:42:27.514Z,2.50
2023-08-03T16:44:54.760Z,0.60
2023-08-03T16:47:22.174Z,1.42
2023-08-03T16:49:50.839Z,1.38
2023-08-03T16:52:19.670Z,0.70
2023-08-03T16:54:46.913Z,0.40
2023-08-03T16:57:14.155Z,0.40
2023-08-03T16:59:41.530Z,0.77
2023-08-03T17:02:08.698Z,0.75
2023-08-03T17:04:36.255Z,1.15
2023-08-03T17:07:03.784Z,4.18
2023-08-03T17:09:32.990Z,2.78
2023-08-03T17:12:00.261Z,0.35
2023-08-03T17:14:27.779Z,0.70
2023-08-03T17:16:55.050Z,0.98
2023-08-03T17:19:22.797Z,3.17
2023-08-03T17:21:50.259Z,2.65
2023-08-03T17:24:17.482Z,0.73
2023-08-03T17:26:46.724Z,1.15
2023-08-03T17:29:14.105Z,1.85
2023-08-03T17:31:41.875Z,0.95
2023-08-03T17:34:09.901Z,2.15
2023-08-03T17:36:37.716Z,1.77
2023-08-03T17:39:05.058Z,1.20
2023-08-03T17:41:32.311Z,0.47
2023-08-03T17:44:00.954Z,0.57
2023-08-03T17:46:29.944Z,0.70
2023-08-03T17:48:59.349Z,1.08
2023-08-03T17:51:26.586Z,1.70
2023-08-03T17:53:53.761Z,0.40
2023-08-03T17:56:20.968Z,1.63
2023-08-03T17:58:50.232Z,0.80
2023-08-03T18:01:20.238Z,1.00
2023-08-03T18:03:47.594Z,0.38
2023-08-03T18:06:15.928Z,0.75
2023-08-03T18:08:43.932Z,1.05
2023-08-03T18:11:11.367Z,1.30
2023-08-03T18:13:38.601Z,2.08
2023-08-03T18:16:07.588Z,0.75
2023-08-03T18:18:37.877Z,0.77
2023-08-03T18:21:06.398Z,0.32
2023-08-03T18:23:33.667Z,1.00
2023-08-03T18:26:01.895Z,0.80
2023-08-03T18:28:30.126Z,0.52
2023-08-03T18:31:01.856Z,0.85
2023-08-03T18:33:30.679Z,1.65
2023-08-03T18:36:04.315Z,1.15
2023-08-03T18:38:32.811Z,0.52
2023-08-03T18:41:01.714Z,0.65
2023-08-03T18:43:28.887Z,0.50
2023-08-03T18:45:57.651Z,1.13
2023-08-03T18:48:24.945Z,0.50
2023-08-03T18:51:00.295Z,0.47
2023-08-03T18:53:30.080Z,1.02
2023-08-03T18:56:02.545Z,0.35
2023-08-03T18:58:30.464Z,0.77
2023-08-03T19:00:59.130Z,0.70
2023-08-03T19:03:26.927Z,1.85
2023-08-03T19:05:54.362Z,0.98
2023-08-03T19:08:22.026Z,0.57
2023-08-03T19:10:51.096Z,0.57
2023-08-03T19:13:19.956Z,0.95
2023-08-03T19:15:47.334Z,0.95
2023-08-03T19:18:14.961Z,0.90
2023-08-03T19:20:43.363Z,0.85
2023-08-03T19:23:10.832Z,0.47
2023-08-03T19:25:39.558Z,1.23
2023-08-03T19:30:37.790Z,0.52
2023-08-03T19:33:09.334Z,0.85
2023-08-03T19:35:38.874Z,0.47
2023-08-03T19:38:06.232Z,0.60
2023-08-03T19:40:33.690Z,0.70
2023-08-03T19:43:01.638Z,0.65
2023-08-03T19:45:30.953Z,0.75
2023-08-03T19:47:58.985Z,0.40
2023-08-03T19:50:27.650Z,1.42
2023-08-03T19:55:29.726Z,0.55
2023-08-03T20:10:33.407Z,0.90
2023-08-03T20:15:52.323Z,0.38
2023-08-03T20:18:22.498Z,0.60
2023-08-03T20:20:49.764Z,0.85
2023-08-03T20:23:16.941Z,0.63
2023-08-03T20:25:44.305Z,0.30
2023-08-03T20:28:12.670Z,2.28
2023-08-03T20:30:40.382Z,1.48
2023-08-03T20:33:07.648Z,2.60
2023-08-03T20:35:36.231Z,0.98
2023-08-03T20:53:12.362Z,2.35
2023-08-03T20:55:39.555Z,1.25
2023-08-03T20:58:06.807Z,2.63
2023-08-03T21:00:33.989Z,0.95
2023-08-03T21:03:01.276Z,1.13
2023-08-03T21:05:36.954Z,1.00
2023-08-03T21:08:12.222Z,2.88
2023-08-03T21:13:09.821Z,0.90
2023-08-03T21:15:37.450Z,0.75
2023-08-03T21:18:04.736Z,1.75
2023-08-03T21:20:33.275Z,1.48
2023-08-03T21:23:00.755Z,2.25
2023-08-03T21:25:29.412Z,1.45
2023-08-03T21:27:56.611Z,1.40
2023-08-03T21:30:23.945Z,1.27
2023-08-03T21:32:51.239Z,1.45
2023-08-03T21:35:20.031Z,0.45
2023-08-03T21:37:47.389Z,3.40
2023-08-03T21:40:15.094Z,2.78
2023-08-03T21:42:43.863Z,2.83
2023-08-03T21:45:11.065Z,0.65
2023-08-03T21:47:38.380Z,1.00
2023-08-03T21:50:06.682Z,2.22
2023-08-03T21:52:33.897Z,1.95
2023-08-03T21:55:01.222Z,1.60
2023-08-03T21:57:28.476Z,1.48
2023-08-03T21:59:57.068Z,0.50
2023-08-03T22:02:24.365Z,3.72
2023-08-03T22:04:51.653Z,2.35
2023-08-03T22:07:18.960Z,1.63
2023-08-03T22:09:46.179Z,0.70
2023-08-03T22:12:13.585Z,3.05
2023-08-03T22:14:40.765Z,0.93
2023-08-03T22:17:09.834Z,1.02
2023-08-03T22:19:37.026Z,1.85
2023-08-03T22:22:04.669Z,2.78
2023-08-03T22:24:31.880Z,1.23
2023-08-03T22:26:59.146Z,1.85
2023-08-03T22:29:26.408Z,2.33
2023-08-03T22:31:53.650Z,1.83
2023-08-03T22:34:22.194Z,2.67
2023-08-03T22:36:49.360Z,0.85
2023-08-03T22:39:16.652Z,2.45
2023-08-03T22:41:43.982Z,0.93
2023-08-03T22:44:11.487Z,0.95
2023-08-03T22:46:38.730Z,0.68
2023-08-03T22:49:05.975Z,1.98
2023-08-03T22:51:34.658Z,1.17
2023-08-03T22:54:01.921Z,1.50
2023-08-03T22:56:30.112Z,1.30
2023-08-03T22:58:57.307Z,2.42
2023-08-03T23:01:24.614Z,1.15
2023-08-03T23:03:52.166Z,1.30
2023-08-03T23:06:21.382Z,2.80
2023-08-03T23:08:50.800Z,2.25
2023-08-03T23:11:18.197Z,0.90
2023-08-03T23:13:45.711Z,1.50
2023-08-03T23:16:17.843Z,0.55
2023-08-03T23:18:45.105Z,1.27
2023-08-03T23:21:12.302Z,0.57
2023-08-03T23:23:39.842Z,0.43
2023-08-03T23:26:09.657Z,1.77
2023-08-03T23:28:37.250Z,1.10
2023-08-03T23:31:04.708Z,1.08
2023-08-03T23:33:32.787Z,2.58
2023-08-03T23:36:01.033Z,2.70
2023-08-03T23:38:28.834Z,1.70
2023-08-03T23:40:56.022Z,0.77
2023-08-03T23:43:25.751Z,1.17
2023-08-03T23:45:53.125Z,1.17
2023-08-03T23:48:20.382Z,0.80
2023-08-03T23:50:47.526Z,0.40
2023-08-03T23:53:14.735Z,1.42
2023-08-03T23:55:41.937Z,2.00
2023-08-03T23:58:09.128Z,1.95
